sensor_id;sensor_type;location;lat;lon;timestamp;P1;durP1;ratioP1;P2;durP2;ratioP2
1366;SDS011;16877;48.810;9.282;2024-02-21T00:00:00;7.40;;;4.13;;
1366;SDS011;16877;48.810;9.282;2024-02-21T00:02:27;8.00;;;3.80;;
1366;SDS011;16877;48.810;9.282;2024-02-21T00:04:54;10.37;;;4.73;;
1366;SDS011;16877;48.810;9.282;2024-02-21T00:07:21;6.50;;;3.43;;
1366;SDS011;16877;48.810;9.282;2024-02-21T00:09:48;8.57;;;3.87;;
1366;SDS011;16877;48.810;9.282;2024-02-21T00:12:15;8.80;;;3.77;;
1366;SDS011;16877;48.810;9.282;2024-02-21T00:14:42;7.73;;;4.50;;
1366;SDS011;16877;48.810;9.282;2024-02-21T00:17:10;8.10;;;3.77;;
1366;SDS011;16877;48.810;9.282;2024-02-21T00:19:37;10.43;;;3.83;;
1366;SDS011;16877;48.810;9.282;2024-02-21T00:22:04;9.53;;;4.90;;
1366;SDS011;16877;48.810;9.282;2024-02-21T00:24:31;7.10;;;3.57;;
1366;SDS011;16877;48.810;9.282;2024-02-21T00:26:58;7.33;;;3.13;;
1366;SDS011;16877;48.810;9.282;2024-02-21T00:29:25;6.97;;;3.83;;
1366;SDS011;16877;48.810;9.282;2024-02-21T00:31:52;10.27;;;4.07;;
1366;SDS011;16877;48.810;9.282;2024-02-21T00:34:21;9.50;;;4.63;;
1366;SDS011;16877;48.810;9.282;2024-02-21T00:36:48;7.00;;;3.80;;
1366;SDS011;16877;48.810;9.282;2024-02-21T00:39:15;6.23;;;4.00;;
1366;SDS011;16877;48.810;9.282;2024-02-21T00:41:42;7.63;;;3.80;;
1366;SDS011;16877;48.810;9.282;2024-02-21T00:44:09;8.63;;;4.10;;
1366;SDS011;16877;48.810;9.282;2024-02-21T00:46:36;5.30;;;3.80;;
1366;SDS011;16877;48.810;9.282;2024-02-21T00:49:04;8.50;;;3.90;;
1366;SDS011;16877;48.810;9.282;2024-02-21T00:51:33;7.20;;;3.77;;
1366;SDS011;16877;48.810;9.282;2024-02-21T00:54:00;7.27;;;3.90;;
1366;SDS011;16877;48.810;9.282;2024-02-21T00:56:27;7.30;;;4.23;;
1366;SDS011;16877;48.810;9.282;2024-02-21T00:58:54;9.77;;;4.10;;
1366;SDS011;16877;48.810;9.282;2024-02-21T01:01:22;7.60;;;4.00;;
1366;SDS011;16877;48.810;9.282;2024-02-21T01:03:49;7.00;;;3.33;;
1366;SDS011;16877;48.810;9.282;2024-02-21T01:06:18;8.10;;;4.47;;
1366;SDS011;16877;48.810;9.282;2024-02-21T01:08:46;7.00;;;4.20;;
1366;SDS011;16877;48.810;9.282;2024-02-21T01:11:13;6.90;;;4.10;;
1366;SDS011;16877;48.810;9.282;2024-02-21T01:13:40;7.60;;;3.97;;
1366;SDS011;16877;48.810;9.282;2024-02-21T01:16:08;11.73;;;4.20;;
1366;SDS011;16877;48.810;9.282;2024-02-21T01:18:36;7.53;;;3.80;;
1366;SDS011;16877;48.810;9.282;2024-02-21T01:21:04;10.70;;;3.80;;
1366;SDS011;16877;48.810;9.282;2024-02-21T01:23:32;10.17;;;4.47;;
1366;SDS011;16877;48.810;9.282;2024-02-21T01:26:00;6.60;;;4.10;;
1366;SDS011;16877;48.810;9.282;2024-02-21T01:28:27;6.60;;;3.87;;
1366;SDS011;16877;48.810;9.282;2024-02-21T01:30:54;13.53;;;4.47;;
1366;SDS011;16877;48.810;9.282;2024-02-21T01:33:21;8.27;;;3.97;;
1366;SDS011;16877;48.810;9.282;2024-02-21T01:35:48;7.97;;;3.80;;
1366;SDS011;16877;48.810;9.282;2024-02-21T01:38:15;7.03;;;3.77;;
1366;SDS011;16877;48.810;9.282;2024-02-21T01:40:42;11.37;;;3.90;;
1366;SDS011;16877;48.810;9.282;2024-02-21T01:43:17;8.53;;;3.67;;
1366;SDS011;16877;48.810;9.282;2024-02-21T01:45:46;9.40;;;3.70;;
1366;SDS011;16877;48.810;9.282;2024-02-21T01:48:13;9.60;;;4.80;;
1366;SDS011;16877;48.810;9.282;2024-02-21T01:50:40;9.43;;;4.23;;
1366;SDS011;16877;48.810;9.282;2024-02-21T01:53:07;9.37;;;3.83;;
1366;SDS011;16877;48.810;9.282;2024-02-21T01:55:34;8.33;;;4.53;;
1366;SDS011;16877;48.810;9.282;2024-02-21T01:58:02;7.67;;;3.83;;
1366;SDS011;16877;48.810;9.282;2024-02-21T02:00:30;9.70;;;4.27;;
1366;SDS011;16877;48.810;9.282;2024-02-21T02:02:57;10.53;;;4.00;;
1366;SDS011;16877;48.810;9.282;2024-02-21T02:05:24;8.30;;;4.13;;
1366;SDS011;16877;48.810;9.282;2024-02-21T02:07:52;12.70;;;4.73;;
1366;SDS011;16877;48.810;9.282;2024-02-21T02:10:19;7.87;;;4.30;;
1366;SDS011;16877;48.810;9.282;2024-02-21T02:12:46;7.03;;;3.63;;
1366;SDS011;16877;48.810;9.282;2024-02-21T02:15:13;8.50;;;3.80;;
1366;SDS011;16877;48.810;9.282;2024-02-21T02:17:41;6.37;;;4.03;;
1366;SDS011;16877;48.810;9.282;2024-02-21T02:20:09;5.10;;;3.37;;
1366;SDS011;16877;48.810;9.282;2024-02-21T02:22:36;8.57;;;3.90;;
1366;SDS011;16877;48.810;9.282;2024-02-21T02:25:05;7.47;;;4.03;;
1366;SDS011;16877;48.810;9.282;2024-02-21T02:27:32;6.13;;;3.87;;
1366;SDS011;16877;48.810;9.282;2024-02-21T02:29:59;9.90;;;4.40;;
1366;SDS011;16877;48.810;9.282;2024-02-21T02:32:26;11.67;;;4.37;;
1366;SDS011;16877;48.810;9.282;2024-02-21T02:34:53;7.77;;;4.67;;
1366;SDS011;16877;48.810;9.282;2024-02-21T02:37:21;11.47;;;4.33;;
1366;SDS011;16877;48.810;9.282;2024-02-21T02:39:48;9.73;;;4.10;;
1366;SDS011;16877;48.810;9.282;2024-02-21T02:42:16;9.30;;;4.03;;
1366;SDS011;16877;48.810;9.282;2024-02-21T02:44:43;6.20;;;4.27;;
1366;SDS011;16877;48.810;9.282;2024-02-21T02:47:11;6.60;;;4.30;;
1366;SDS011;16877;48.810;9.282;2024-02-21T02:49:38;9.23;;;4.23;;
1366;SDS011;16877;48.810;9.282;2024-02-21T02:52:05;8.30;;;3.77;;
1366;SDS011;16877;48.810;9.282;2024-02-21T02:54:32;11.53;;;4.30;;
1366;SDS011;16877;48.810;9.282;2024-02-21T02:56:59;8.50;;;4.07;;
1366;SDS011;16877;48.810;9.282;2024-02-21T02:59:27;8.20;;;4.17;;
1366;SDS011;16877;48.810;9.282;2024-02-21T03:01:54;8.70;;;3.93;;
1366;SDS011;16877;48.810;9.282;2024-02-21T03:04:21;7.80;;;4.37;;
1366;SDS011;16877;48.810;9.282;2024-02-21T03:06:48;8.47;;;4.10;;
1366;SDS011;16877;48.810;9.282;2024-02-21T03:09:15;8.40;;;3.90;;
1366;SDS011;16877;48.810;9.282;2024-02-21T03:11:42;7.07;;;3.97;;
1366;SDS011;16877;48.810;9.282;2024-02-21T03:14:10;6.00;;;3.60;;
1366;SDS011;16877;48.810;9.282;2024-02-21T03:16:38;6.73;;;3.43;;
1366;SDS011;16877;48.810;9.282;2024-02-21T03:19:05;9.07;;;3.90;;
1366;SDS011;16877;48.810;9.282;2024-02-21T03:21:33;9.63;;;4.10;;
1366;SDS011;16877;48.810;9.282;2024-02-21T03:24:00;6.23;;;3.50;;
1366;SDS011;16877;48.810;9.282;2024-02-21T03:26:27;6.53;;;3.63;;
1366;SDS011;16877;48.810;9.282;2024-02-21T03:28:54;6.73;;;3.27;;
1366;SDS011;16877;48.810;9.282;2024-02-21T03:31:21;8.27;;;4.00;;
1366;SDS011;16877;48.810;9.282;2024-02-21T03:33:49;6.77;;;3.30;;
1366;SDS011;16877;48.810;9.282;2024-02-21T03:36:16;6.63;;;3.10;;
1366;SDS011;16877;48.810;9.282;2024-02-21T03:38:43;7.43;;;3.97;;
1366;SDS011;16877;48.810;9.282;2024-02-21T03:41:10;9.17;;;4.23;;
1366;SDS011;16877;48.810;9.282;2024-02-21T03:43:37;9.13;;;4.57;;
1366;SDS011;16877;48.810;9.282;2024-02-21T03:46:04;7.60;;;3.93;;
1366;SDS011;16877;48.810;9.282;2024-02-21T03:48:31;10.53;;;3.60;;
1366;SDS011;16877;48.810;9.282;2024-02-21T03:51:00;5.10;;;3.10;;
1366;SDS011;16877;48.810;9.282;2024-02-21T03:53:27;5.70;;;3.70;;
1366;SDS011;16877;48.810;9.282;2024-02-21T03:55:54;6.40;;;3.23;;
1366;SDS011;16877;48.810;9.282;2024-02-21T03:58:21;5.03;;;3.20;;
1366;SDS011;16877;48.810;9.282;2024-02-21T04:00:48;7.20;;;3.20;;
1366;SDS011;16877;48.810;9.282;2024-02-21T04:03:15;5.83;;;3.30;;
1366;SDS011;16877;48.810;9.282;2024-02-21T04:05:42;5.50;;;2.83;;
1366;SDS011;16877;48.810;9.282;2024-02-21T04:08:11;7.03;;;3.23;;
1366;SDS011;16877;48.810;9.282;2024-02-21T04:10:38;7.33;;;3.40;;
1366;SDS011;16877;48.810;9.282;2024-02-21T04:13:05;6.40;;;2.77;;
1366;SDS011;16877;48.810;9.282;2024-02-21T04:15:33;6.80;;;3.80;;
1366;SDS011;16877;48.810;9.282;2024-02-21T04:18:00;6.27;;;3.57;;
1366;SDS011;16877;48.810;9.282;2024-02-21T04:20:28;5.50;;;3.00;;
1366;SDS011;16877;48.810;9.282;2024-02-21T04:22:55;8.30;;;3.87;;
1366;SDS011;16877;48.810;9.282;2024-02-21T04:25:23;5.80;;;3.00;;
1366;SDS011;16877;48.810;9.282;2024-02-21T04:27:51;6.57;;;3.47;;
1366;SDS011;16877;48.810;9.282;2024-02-21T04:30:18;7.20;;;3.10;;
1366;SDS011;16877;48.810;9.282;2024-02-21T04:32:45;6.30;;;3.00;;
1366;SDS011;16877;48.810;9.282;2024-02-21T04:35:12;6.80;;;3.30;;
1366;SDS011;16877;48.810;9.282;2024-02-21T04:37:39;7.37;;;3.53;;
1366;SDS011;16877;48.810;9.282;2024-02-21T04:40:06;5.90;;;3.00;;
1366;SDS011;16877;48.810;9.282;2024-02-21T04:42:35;5.40;;;2.87;;
1366;SDS011;16877;48.810;9.282;2024-02-21T04:45:02;7.13;;;3.00;;
1366;SDS011;16877;48.810;9.282;2024-02-21T04:47:29;4.50;;;2.60;;
1366;SDS011;16877;48.810;9.282;2024-02-21T04:49:56;6.77;;;3.57;;
1366;SDS011;16877;48.810;9.282;2024-02-21T04:52:23;7.17;;;3.23;;
1366;SDS011;16877;48.810;9.282;2024-02-21T04:54:50;11.47;;;3.40;;
1366;SDS011;16877;48.810;9.282;2024-02-21T04:57:17;5.77;;;3.10;;
1366;SDS011;16877;48.810;9.282;2024-02-21T04:59:46;11.73;;;4.00;;
1366;SDS011;16877;48.810;9.282;2024-02-21T05:02:13;5.90;;;3.10;;
1366;SDS011;16877;48.810;9.282;2024-02-21T05:04:40;5.60;;;3.30;;
1366;SDS011;16877;48.810;9.282;2024-02-21T05:07:07;4.83;;;2.60;;
1366;SDS011;16877;48.810;9.282;2024-02-21T05:09:36;5.90;;;3.30;;
1366;SDS011;16877;48.810;9.282;2024-02-21T05:12:03;4.60;;;2.40;;
1366;SDS011;16877;48.810;9.282;2024-02-21T05:14:30;5.57;;;2.90;;
1366;SDS011;16877;48.810;9.282;2024-02-21T05:16:58;4.83;;;2.70;;
1366;SDS011;16877;48.810;9.282;2024-02-21T05:19:25;6.50;;;3.50;;
1366;SDS011;16877;48.810;9.282;2024-02-21T05:21:52;5.10;;;3.13;;
1366;SDS011;16877;48.810;9.282;2024-02-21T05:24:19;6.07;;;3.37;;
1366;SDS011;16877;48.810;9.282;2024-02-21T05:26:46;4.93;;;3.30;;
1366;SDS011;16877;48.810;9.282;2024-02-21T05:29:13;6.73;;;2.90;;
1366;SDS011;16877;48.810;9.282;2024-02-21T05:31:54;6.27;;;3.37;;
1366;SDS011;16877;48.810;9.282;2024-02-21T05:34:23;5.43;;;3.10;;
1366;SDS011;16877;48.810;9.282;2024-02-21T05:36:50;12.50;;;3.13;;
1366;SDS011;16877;48.810;9.282;2024-02-21T05:39:17;5.50;;;3.20;;
1366;SDS011;16877;48.810;9.282;2024-02-21T05:41:44;6.30;;;3.07;;
1366;SDS011;16877;48.810;9.282;2024-02-21T05:44:11;6.80;;;3.07;;
1366;SDS011;16877;48.810;9.282;2024-02-21T05:46:39;5.17;;;3.30;;
1366;SDS011;16877;48.810;9.282;2024-02-21T05:49:06;6.83;;;3.37;;
1366;SDS011;16877;48.810;9.282;2024-02-21T05:51:34;6.87;;;3.43;;
1366;SDS011;16877;48.810;9.282;2024-02-21T05:54:01;5.80;;;3.20;;
1366;SDS011;16877;48.810;9.282;2024-02-21T05:56:28;6.07;;;2.67;;
1366;SDS011;16877;48.810;9.282;2024-02-21T05:58:55;6.50;;;2.80;;
1366;SDS011;16877;48.810;9.282;2024-02-21T06:01:22;5.47;;;3.23;;
1366;SDS011;16877;48.810;9.282;2024-02-21T06:03:49;9.07;;;3.37;;
1366;SDS011;16877;48.810;9.282;2024-02-21T06:06:16;8.13;;;3.23;;
1366;SDS011;16877;48.810;9.282;2024-02-21T06:08:44;6.30;;;3.03;;
1366;SDS011;16877;48.810;9.282;2024-02-21T06:11:12;8.63;;;3.30;;
1366;SDS011;16877;48.810;9.282;2024-02-21T06:13:40;6.87;;;3.13;;
1366;SDS011;16877;48.810;9.282;2024-02-21T06:16:07;6.03;;;3.20;;
1366;SDS011;16877;48.810;9.282;2024-02-21T06:18:35;5.30;;;2.83;;
1366;SDS011;16877;48.810;9.282;2024-02-21T06:21:03;8.27;;;3.27;;
1366;SDS011;16877;48.810;9.282;2024-02-21T06:23:30;7.60;;;3.10;;
1366;SDS011;16877;48.810;9.282;2024-02-21T06:25:58;6.17;;;3.40;;
1366;SDS011;16877;48.810;9.282;2024-02-21T06:28:26;7.63;;;4.13;;
1366;SDS011;16877;48.810;9.282;2024-02-21T06:30:53;4.97;;;3.03;;
1366;SDS011;16877;48.810;9.282;2024-02-21T06:33:20;5.40;;;3.50;;
1366;SDS011;16877;48.810;9.282;2024-02-21T06:35:49;7.07;;;4.50;;
1366;SDS011;16877;48.810;9.282;2024-02-21T06:38:18;8.20;;;3.40;;
1366;SDS011;16877;48.810;9.282;2024-02-21T06:40:45;5.77;;;3.73;;
1366;SDS011;16877;48.810;9.282;2024-02-21T06:43:17;8.37;;;4.07;;
1366;SDS011;16877;48.810;9.282;2024-02-21T06:45:45;7.80;;;3.63;;
1366;SDS011;16877;48.810;9.282;2024-02-21T06:48:15;6.90;;;3.70;;
1366;SDS011;16877;48.810;9.282;2024-02-21T06:50:42;5.60;;;3.40;;
1366;SDS011;16877;48.810;9.282;2024-02-21T06:53:09;6.63;;;3.70;;
1366;SDS011;16877;48.810;9.282;2024-02-21T06:55:36;7.43;;;4.43;;
1366;SDS011;16877;48.810;9.282;2024-02-21T06:58:03;6.80;;;4.50;;
1366;SDS011;16877;48.810;9.282;2024-02-21T07:00:34;9.77;;;5.23;;
1366;SDS011;16877;48.810;9.282;2024-02-21T07:03:02;9.43;;;4.80;;
1366;SDS011;16877;48.810;9.282;2024-02-21T07:05:29;8.13;;;4.30;;
1366;SDS011;16877;48.810;9.282;2024-02-21T07:07:56;10.10;;;4.33;;
1366;SDS011;16877;48.810;9.282;2024-02-21T07:10:23;8.73;;;3.50;;
1366;SDS011;16877;48.810;9.282;2024-02-21T07:12:50;5.77;;;3.10;;
1366;SDS011;16877;48.810;9.282;2024-02-21T07:15:17;7.77;;;4.00;;
1366;SDS011;16877;48.810;9.282;2024-02-21T07:17:46;7.63;;;3.50;;
1366;SDS011;16877;48.810;9.282;2024-02-21T07:20:13;6.80;;;3.53;;
1366;SDS011;16877;48.810;9.282;2024-02-21T07:22:39;6.00;;;3.87;;
1366;SDS011;16877;48.810;9.282;2024-02-21T07:25:06;6.17;;;2.40;;
1366;SDS011;16877;48.810;9.282;2024-02-21T07:27:34;5.87;;;2.27;;
1366;SDS011;16877;48.810;9.282;2024-02-21T07:30:00;4.40;;;1.90;;
1366;SDS011;16877;48.810;9.282;2024-02-21T07:32:27;6.60;;;2.33;;
1366;SDS011;16877;48.810;9.282;2024-02-21T07:34:55;4.17;;;1.83;;
1366;SDS011;16877;48.810;9.282;2024-02-21T07:37:21;5.10;;;2.40;;
1366;SDS011;16877;48.810;9.282;2024-02-21T07:39:48;4.03;;;1.80;;
1366;SDS011;16877;48.810;9.282;2024-02-21T07:42:15;4.07;;;2.23;;
1366;SDS011;16877;48.810;9.282;2024-02-21T07:44:41;6.23;;;2.30;;
1366;SDS011;16877;48.810;9.282;2024-02-21T07:47:08;7.10;;;3.03;;
1366;SDS011;16877;48.810;9.282;2024-02-21T07:49:40;4.50;;;2.50;;
1366;SDS011;16877;48.810;9.282;2024-02-21T07:52:09;6.30;;;2.97;;
1366;SDS011;16877;48.810;9.282;2024-02-21T07:54:36;5.70;;;3.30;;
1366;SDS011;16877;48.810;9.282;2024-02-21T07:57:02;5.20;;;2.60;;
1366;SDS011;16877;48.810;9.282;2024-02-21T07:59:29;6.27;;;2.80;;
1366;SDS011;16877;48.810;9.282;2024-02-21T08:01:56;6.50;;;2.70;;
1366;SDS011;16877;48.810;9.282;2024-02-21T08:04:23;5.57;;;3.17;;
1366;SDS011;16877;48.810;9.282;2024-02-21T08:06:51;6.37;;;3.33;;
1366;SDS011;16877;48.810;9.282;2024-02-21T08:09:19;6.10;;;3.53;;
1366;SDS011;16877;48.810;9.282;2024-02-21T08:11:46;7.40;;;3.37;;
1366;SDS011;16877;48.810;9.282;2024-02-21T08:14:13;5.93;;;3.23;;
1366;SDS011;16877;48.810;9.282;2024-02-21T08:16:41;8.47;;;3.60;;
1366;SDS011;16877;48.810;9.282;2024-02-21T08:19:07;7.47;;;3.90;;
1366;SDS011;16877;48.810;9.282;2024-02-21T08:21:35;7.03;;;3.37;;
1366;SDS011;16877;48.810;9.282;2024-02-21T08:24:02;6.67;;;3.67;;
1366;SDS011;16877;48.810;9.282;2024-02-21T08:26:30;6.90;;;4.30;;
1366;SDS011;16877;48.810;9.282;2024-02-21T08:28:57;7.20;;;4.23;;
1366;SDS011;16877;48.810;9.282;2024-02-21T08:31:25;7.50;;;3.70;;
1366;SDS011;16877;48.810;9.282;2024-02-21T08:33:56;9.63;;;3.53;;
1366;SDS011;16877;48.810;9.282;2024-02-21T08:36:27;6.07;;;3.67;;
1366;SDS011;16877;48.810;9.282;2024-02-21T08:38:54;6.40;;;3.37;;
1366;SDS011;16877;48.810;9.282;2024-02-21T08:41:20;7.30;;;3.57;;
1366;SDS011;16877;48.810;9.282;2024-02-21T08:43:49;6.97;;;3.60;;
1366;SDS011;16877;48.810;9.282;2024-02-21T08:46:16;11.00;;;4.27;;
1366;SDS011;16877;48.810;9.282;2024-02-21T08:48:43;7.97;;;3.67;;
1366;SDS011;16877;48.810;9.282;2024-02-21T08:51:10;8.90;;;3.97;;
1366;SDS011;16877;48.810;9.282;2024-02-21T08:53:37;8.60;;;4.33;;
1366;SDS011;16877;48.810;9.282;2024-02-21T08:56:05;8.73;;;3.50;;
1366;SDS011;16877;48.810;9.282;2024-02-21T08:58:32;6.30;;;3.83;;
1366;SDS011;16877;48.810;9.282;2024-02-21T09:01:01;7.57;;;3.73;;
1366;SDS011;16877;48.810;9.282;2024-02-21T09:03:30;8.53;;;3.87;;
1366;SDS011;16877;48.810;9.282;2024-02-21T09:05:57;10.90;;;4.70;;
1366;SDS011;16877;48.810;9.282;2024-02-21T09:08:25;6.77;;;3.50;;
1366;SDS011;16877;48.810;9.282;2024-02-21T09:10:52;6.50;;;3.57;;
1366;SDS011;16877;48.810;9.282;2024-02-21T09:13:19;7.00;;;3.57;;
1366;SDS011;16877;48.810;9.282;2024-02-21T09:15:46;9.63;;;4.00;;
1366;SDS011;16877;48.810;9.282;2024-02-21T09:18:15;8.30;;;3.63;;
1366;SDS011;16877;48.810;9.282;2024-02-21T09:20:42;8.70;;;3.80;;
1366;SDS011;16877;48.810;9.282;2024-02-21T09:23:09;7.97;;;4.03;;
1366;SDS011;16877;48.810;9.282;2024-02-21T09:25:36;7.63;;;3.43;;
1366;SDS011;16877;48.810;9.282;2024-02-21T09:28:03;6.00;;;3.60;;
1366;SDS011;16877;48.810;9.282;2024-02-21T09:30:31;7.03;;;3.83;;
1366;SDS011;16877;48.810;9.282;2024-02-21T09:32:59;6.90;;;3.53;;
1366;SDS011;16877;48.810;9.282;2024-02-21T09:35:28;7.00;;;3.70;;
1366;SDS011;16877;48.810;9.282;2024-02-21T09:37:55;9.27;;;3.53;;
1366;SDS011;16877;48.810;9.282;2024-02-21T09:40:22;5.27;;;3.03;;
1366;SDS011;16877;48.810;9.282;2024-02-21T09:42:49;8.97;;;3.77;;
1366;SDS011;16877;48.810;9.282;2024-02-21T09:45:23;5.70;;;2.53;;
1366;SDS011;16877;48.810;9.282;2024-02-21T09:47:52;8.77;;;3.10;;
1366;SDS011;16877;48.810;9.282;2024-02-21T09:50:25;7.50;;;2.80;;
1366;SDS011;16877;48.810;9.282;2024-02-21T09:52:54;6.13;;;3.20;;
1366;SDS011;16877;48.810;9.282;2024-02-21T09:55:22;9.67;;;3.20;;
1366;SDS011;16877;48.810;9.282;2024-02-21T09:57:50;8.33;;;3.63;;
1366;SDS011;16877;48.810;9.282;2024-02-21T10:00:18;6.20;;;3.30;;
1366;SDS011;16877;48.810;9.282;2024-02-21T10:02:47;6.77;;;3.03;;
1366;SDS011;16877;48.810;9.282;2024-02-21T10:05:15;7.77;;;3.17;;
1366;SDS011;16877;48.810;9.282;2024-02-21T10:07:42;7.30;;;3.50;;
1366;SDS011;16877;48.810;9.282;2024-02-21T10:10:11;8.43;;;3.97;;
1366;SDS011;16877;48.810;9.282;2024-02-21T10:12:47;7.93;;;3.27;;
1366;SDS011;16877;48.810;9.282;2024-02-21T10:15:19;5.53;;;3.43;;
1366;SDS011;16877;48.810;9.282;2024-02-21T10:17:46;8.30;;;4.33;;
1366;SDS011;16877;48.810;9.282;2024-02-21T10:20:13;10.53;;;4.10;;
1366;SDS011;16877;48.810;9.282;2024-02-21T10:22:41;7.70;;;3.60;;
1366;SDS011;16877;48.810;9.282;2024-02-21T10:25:08;5.60;;;3.10;;
1366;SDS011;16877;48.810;9.282;2024-02-21T10:27:37;9.40;;;3.83;;
1366;SDS011;16877;48.810;9.282;2024-02-21T10:30:04;6.87;;;3.70;;
1366;SDS011;16877;48.810;9.282;2024-02-21T10:32:32;6.53;;;3.00;;
1366;SDS011;16877;48.810;9.282;2024-02-21T10:35:02;8.50;;;3.10;;
1366;SDS011;16877;48.810;9.282;2024-02-21T10:37:30;5.10;;;2.63;;
1366;SDS011;16877;48.810;9.282;2024-02-21T10:39:57;5.33;;;3.00;;
1366;SDS011;16877;48.810;9.282;2024-02-21T10:42:24;7.50;;;3.30;;
1366;SDS011;16877;48.810;9.282;2024-02-21T10:44:54;4.40;;;2.60;;
1366;SDS011;16877;48.810;9.282;2024-02-21T10:47:24;6.70;;;2.87;;
1366;SDS011;16877;48.810;9.282;2024-02-21T10:49:59;7.80;;;3.10;;
1366;SDS011;16877;48.810;9.282;2024-02-21T10:52:27;5.73;;;2.20;;
1366;SDS011;16877;48.810;9.282;2024-02-21T10:54:59;7.47;;;3.13;;
1366;SDS011;16877;48.810;9.282;2024-02-21T10:57:31;5.10;;;2.47;;
1366;SDS011;16877;48.810;9.282;2024-02-21T10:59:58;7.30;;;2.73;;
1366;SDS011;16877;48.810;9.282;2024-02-21T11:02:26;5.63;;;2.57;;
1366;SDS011;16877;48.810;9.282;2024-02-21T11:04:55;7.83;;;2.57;;
1366;SDS011;16877;48.810;9.282;2024-02-21T11:07:23;5.37;;;2.33;;
1366;SDS011;16877;48.810;9.282;2024-02-21T11:09:51;4.67;;;2.23;;
1366;SDS011;16877;48.810;9.282;2024-02-21T11:12:20;7.83;;;2.40;;
1366;SDS011;16877;48.810;9.282;2024-02-21T11:14:47;8.33;;;2.70;;
1366;SDS011;16877;48.810;9.282;2024-02-21T11:17:16;5.70;;;2.20;;
1366;SDS011;16877;48.810;9.282;2024-02-21T11:19:43;6.37;;;3.03;;
1366;SDS011;16877;48.810;9.282;2024-02-21T11:22:14;4.37;;;2.40;;
1366;SDS011;16877;48.810;9.282;2024-02-21T11:24:42;4.73;;;2.27;;
1366;SDS011;16877;48.810;9.282;2024-02-21T11:27:09;6.03;;;2.20;;
1366;SDS011;16877;48.810;9.282;2024-02-21T11:29:39;5.37;;;2.60;;
1366;SDS011;16877;48.810;9.282;2024-02-21T11:32:08;4.63;;;1.93;;
1366;SDS011;16877;48.810;9.282;2024-02-21T11:34:37;4.03;;;2.00;;
1366;SDS011;16877;48.810;9.282;2024-02-21T11:37:12;3.63;;;1.90;;
1366;SDS011;16877;48.810;9.282;2024-02-21T11:39:41;4.77;;;2.40;;
1366;SDS011;16877;48.810;9.282;2024-02-21T11:42:08;5.40;;;2.57;;
1366;SDS011;16877;48.810;9.282;2024-02-21T11:44:36;4.40;;;2.30;;
1366;SDS011;16877;48.810;9.282;2024-02-21T11:47:04;5.17;;;2.50;;
1366;SDS011;16877;48.810;9.282;2024-02-21T11:49:36;5.10;;;2.30;;
1366;SDS011;16877;48.810;9.282;2024-02-21T11:52:06;5.67;;;2.67;;
1366;SDS011;16877;48.810;9.282;2024-02-21T11:54:33;4.27;;;2.40;;
1366;SDS011;16877;48.810;9.282;2024-02-21T11:57:00;3.90;;;2.13;;
1366;SDS011;16877;48.810;9.282;2024-02-21T11:59:29;4.63;;;2.50;;
1366;SDS011;16877;48.810;9.282;2024-02-21T12:01:57;4.27;;;2.53;;
1366;SDS011;16877;48.810;9.282;2024-02-21T12:04:25;4.77;;;2.50;;
1366;SDS011;16877;48.810;9.282;2024-02-21T12:06:52;6.13;;;2.40;;
1366;SDS011;16877;48.810;9.282;2024-02-21T12:09:22;5.27;;;2.33;;
1366;SDS011;16877;48.810;9.282;2024-02-21T12:11:56;3.17;;;1.97;;
1366;SDS011;16877;48.810;9.282;2024-02-21T12:14:24;5.17;;;2.00;;
1366;SDS011;16877;48.810;9.282;2024-02-21T12:16:51;4.30;;;2.20;;
1366;SDS011;16877;48.810;9.282;2024-02-21T12:19:18;3.10;;;1.93;;
1366;SDS011;16877;48.810;9.282;2024-02-21T12:21:47;4.60;;;1.97;;
1366;SDS011;16877;48.810;9.282;2024-02-21T12:24:15;4.70;;;1.60;;
1366;SDS011;16877;48.810;9.282;2024-02-21T12:26:44;5.60;;;2.07;;
1366;SDS011;16877;48.810;9.282;2024-02-21T12:29:11;5.93;;;2.13;;
1366;SDS011;16877;48.810;9.282;2024-02-21T12:31:38;4.33;;;1.90;;
1366;SDS011;16877;48.810;9.282;2024-02-21T12:34:05;3.00;;;1.40;;
1366;SDS011;16877;48.810;9.282;2024-02-21T12:36:35;3.87;;;1.83;;
1366;SDS011;16877;48.810;9.282;2024-02-21T12:39:02;3.40;;;1.90;;
1366;SDS011;16877;48.810;9.282;2024-02-21T12:41:29;4.03;;;1.50;;
1366;SDS011;16877;48.810;9.282;2024-02-21T12:43:59;3.83;;;1.90;;
1366;SDS011;16877;48.810;9.282;2024-02-21T12:46:26;3.17;;;1.37;;
1366;SDS011;16877;48.810;9.282;2024-02-21T12:48:53;4.30;;;1.77;;
1366;SDS011;16877;48.810;9.282;2024-02-21T12:51:20;3.80;;;1.77;;
1366;SDS011;16877;48.810;9.282;2024-02-21T12:53:47;3.97;;;1.73;;
1366;SDS011;16877;48.810;9.282;2024-02-21T12:56:14;4.23;;;1.80;;
1366;SDS011;16877;48.810;9.282;2024-02-21T12:58:41;3.37;;;1.53;;
1366;SDS011;16877;48.810;9.282;2024-02-21T13:01:11;3.23;;;1.43;;
1366;SDS011;16877;48.810;9.282;2024-02-21T13:03:38;4.97;;;1.70;;
1366;SDS011;16877;48.810;9.282;2024-02-21T13:06:05;2.60;;;1.00;;
1366;SDS011;16877;48.810;9.282;2024-02-21T13:08:35;3.53;;;1.50;;
1366;SDS011;16877;48.810;9.282;2024-02-21T13:11:02;2.40;;;1.00;;
1366;SDS011;16877;48.810;9.282;2024-02-21T13:13:30;3.40;;;1.47;;
1366;SDS011;16877;48.810;9.282;2024-02-21T13:15:57;3.67;;;1.70;;
1366;SDS011;16877;48.810;9.282;2024-02-21T13:18:25;3.20;;;1.50;;
1366;SDS011;16877;48.810;9.282;2024-02-21T13:20:52;6.00;;;1.33;;
1366;SDS011;16877;48.810;9.282;2024-02-21T13:23:19;3.73;;;1.60;;
1366;SDS011;16877;48.810;9.282;2024-02-21T13:25:47;4.10;;;1.70;;
1366;SDS011;16877;48.810;9.282;2024-02-21T13:28:15;3.53;;;1.50;;
1366;SDS011;16877;48.810;9.282;2024-02-21T13:30:42;3.53;;;1.53;;
1366;SDS011;16877;48.810;9.282;2024-02-21T13:33:09;3.60;;;1.63;;
1366;SDS011;16877;48.810;9.282;2024-02-21T13:35:38;2.50;;;1.20;;
1366;SDS011;16877;48.810;9.282;2024-02-21T13:38:05;3.10;;;1.30;;
1366;SDS011;16877;48.810;9.282;2024-02-21T13:40:32;2.30;;;1.03;;
1366;SDS011;16877;48.810;9.282;2024-02-21T13:42:59;4.10;;;1.80;;
1366;SDS011;16877;48.810;9.282;2024-02-21T13:45:27;5.23;;;2.03;;
1366;SDS011;16877;48.810;9.282;2024-02-21T13:47:54;4.10;;;1.73;;
1366;SDS011;16877;48.810;9.282;2024-02-21T13:50:23;3.10;;;1.50;;
1366;SDS011;16877;48.810;9.282;2024-02-21T13:52:52;4.57;;;1.33;;
1366;SDS011;16877;48.810;9.282;2024-02-21T13:55:19;3.30;;;1.40;;
1366;SDS011;16877;48.810;9.282;2024-02-21T13:57:47;3.33;;;1.53;;
1366;SDS011;16877;48.810;9.282;2024-02-21T14:00:14;2.30;;;1.30;;
1366;SDS011;16877;48.810;9.282;2024-02-21T14:02:43;4.53;;;1.60;;
1366;SDS011;16877;48.810;9.282;2024-02-21T14:05:10;3.73;;;1.33;;
1366;SDS011;16877;48.810;9.282;2024-02-21T14:07:39;4.20;;;1.80;;
1366;SDS011;16877;48.810;9.282;2024-02-21T14:10:08;3.60;;;1.50;;
1366;SDS011;16877;48.810;9.282;2024-02-21T14:12:35;2.93;;;1.50;;
1366;SDS011;16877;48.810;9.282;2024-02-21T14:15:03;2.67;;;1.40;;
1366;SDS011;16877;48.810;9.282;2024-02-21T14:17:31;3.00;;;1.80;;
1366;SDS011;16877;48.810;9.282;2024-02-21T14:19:58;2.87;;;1.00;;
1366;SDS011;16877;48.810;9.282;2024-02-21T14:22:25;3.07;;;1.33;;
1366;SDS011;16877;48.810;9.282;2024-02-21T14:24:52;3.40;;;1.60;;
1366;SDS011;16877;48.810;9.282;2024-02-21T14:27:21;3.30;;;1.63;;
1366;SDS011;16877;48.810;9.282;2024-02-21T14:29:48;5.17;;;1.63;;
1366;SDS011;16877;48.810;9.282;2024-02-21T14:32:15;3.40;;;1.97;;
1366;SDS011;16877;48.810;9.282;2024-02-21T14:34:42;3.70;;;1.70;;
1366;SDS011;16877;48.810;9.282;2024-02-21T14:37:09;4.00;;;2.33;;
1366;SDS011;16877;48.810;9.282;2024-02-21T14:39:36;4.10;;;2.13;;
1366;SDS011;16877;48.810;9.282;2024-02-21T14:42:03;3.50;;;1.97;;
1366;SDS011;16877;48.810;9.282;2024-02-21T14:44:31;4.07;;;2.00;;
1366;SDS011;16877;48.810;9.282;2024-02-21T14:47:00;2.40;;;1.30;;
1366;SDS011;16877;48.810;9.282;2024-02-21T14:49:28;4.30;;;2.10;;
1366;SDS011;16877;48.810;9.282;2024-02-21T14:51:55;4.17;;;1.60;;
1366;SDS011;16877;48.810;9.282;2024-02-21T14:54:22;3.20;;;1.40;;
1366;SDS011;16877;48.810;9.282;2024-02-21T14:56:49;3.57;;;1.40;;
1366;SDS011;16877;48.810;9.282;2024-02-21T14:59:16;3.10;;;1.37;;
1366;SDS011;16877;48.810;9.282;2024-02-21T15:01:44;2.93;;;1.10;;